Time;durP1;ratioP1;P1;durP2;ratioP2;P2;SDS_P1;SDS_P2;PMS_P1;PMS_P2;Temp;Humidity;BMP_temperature;BMP_pressure;BME280_temperature;BME280_humidity;BME280_pressure;Samples;Min_cycle;Max_cycle;Signal;HPM_P1;HPM_P2
2022/09/30 00:01:24;;;;;;;5.15;2.75;;;9.00;99.90;;;;;;5019570;28;20048;-76
2022/09/30 00:03:54;;;;;;;5.47;3.47;;;9.00;99.90;;;;;;5060474;28;20051;-76
2022/09/30 00:06:20;;;;;;;4.57;2.40;;;8.90;99.90;;;;;;5019945;28;20040;-76
2022/09/30 00:08:46;;;;;;;4.85;2.90;;;8.90;99.90;;;;;;5020105;28;20040;-76
2022/09/30 00:11:18;;;;;;;5.15;2.78;;;8.90;99.90;;;;;;5036753;28;20072;-76
2022/09/30 00:13:47;;;;;;;6.93;4.80;;;8.90;99.90;;;;;;5036212;28;20041;-75
2022/09/30 00:16:14;;;;;;;5.65;3.90;;;8.90;99.90;;;;;;5035108;28;20080;-75
2022/09/30 00:18:41;;;;;;;6.50;3.80;;;8.80;99.90;;;;;;5024350;28;20469;-76
2022/09/30 00:21:08;;;;;;;7.82;5.30;;;8.80;99.90;;;;;;5036827;28;20393;-76
2022/09/30 00:23:36;;;;;;;7.75;6.28;;;8.70;99.90;;;;;;5036467;28;20153;-78
2022/09/30 00:41:33;;;;;;;7.68;6.47;;;8.60;99.90;;;;;;5053135;28;20092;-77
2022/09/30 00:43:59;;;;;;;;;;;7.80;99.90;;;;;;5036810;28;20041;-77
2022/09/30 00:46:34;;;;;;;7.78;6.65;;;8.50;99.90;;;;;;5034956;28;19927;-76
2022/09/30 00:49:23;;;;;;;7.97;6.47;;;8.50;99.90;;;;;;5036389;28;20056;-76
2022/09/30 00:51:54;;;;;;;8.00;5.85;;;8.50;99.90;;;;;;5036471;28;20048;-77
2022/09/30 00:54:28;;;;;;;8.02;6.20;;;8.40;99.90;;;;;;5035112;28;20362;-77
2022/09/30 00:56:59;;;;;;;7.30;5.03;;;8.40;99.90;;;;;;5033779;28;20045;-77
2022/09/30 00:59:37;;;;;;;5.68;4.15;;;8.40;99.90;;;;;;5053461;28;20067;-77
2022/09/30 01:02:03;;;;;;;9.25;7.72;;;8.40;99.90;;;;;;5029017;28;20112;-77
2022/09/30 01:04:31;;;;;;;8.93;7.38;;;8.40;99.90;;;;;;5019037;28;20049;-77
2022/09/30 01:07:03;;;;;;;6.00;4.40;;;8.30;99.90;;;;;;5033827;28;20057;-77
2022/09/30 01:09:32;;;;;;;6.82;4.50;;;8.30;99.90;;;;;;5036069;28;20043;-77
2022/09/30 01:11:58;;;;;;;7.00;4.40;;;8.30;99.90;;;;;;5035429;28;20036;-77
2022/09/30 01:14:27;;;;;;;5.53;3.80;;;8.30;99.90;;;;;;5035754;28;20087;-78
2022/09/30 01:16:59;;;;;;;8.88;5.82;;;8.40;99.90;;;;;;5033435;28;20504;-77
2022/09/30 01:19:28;;;;;;;;;;;8.30;99.90;;;;;;5036533;28;20040;-77
2022/09/30 01:22:24;;;;;;;5.82;4.13;;;8.30;99.90;;;;;;5046802;28;19917;-77
2022/09/30 01:25:06;;;;;;;6.55;4.30;;;8.30;99.90;;;;;;5034305;28;20389;-77
2022/09/30 01:28:05;;;;;;;7.28;5.57;;;8.30;99.90;;;;;;5041101;28;20485;-77
2022/09/30 01:31:04;;;;;;;5.95;4.45;;;8.20;99.90;;;;;;5016939;28;20057;-77
2022/09/30 01:34:14;;;;;;;5.97;4.32;;;8.20;99.90;;;;;;5035629;28;20045;-77
2022/09/30 01:37:17;;;;;;;7.80;5.53;;;8.20;99.90;;;;;;5035850;28;20045;-78
2022/09/30 01:39:56;;;;;;;7.13;5.70;;;8.20;99.90;;;;;;5035435;28;20493;-77
2022/09/30 01:42:45;;;;;;;11.85;10.57;;;8.20;99.90;;;;;;5034758;28;20495;-78
2022/09/30 01:45:34;;;;;;;8.20;7.30;;;8.20;99.90;;;;;;5029426;28;20053;-78
2022/09/30 01:48:18;;;;;;;9.30;7.57;;;8.20;99.90;;;;;;5051598;28;20036;-77
2022/09/30 01:51:10;;;;;;;7.60;6.25;;;8.20;99.90;;;;;;5034482;28;20080;-77
2022/09/30 01:53:45;;;;;;;7.20;5.72;;;8.20;99.90;;;;;;5035533;28;20037;-77
2022/09/30 01:56:26;;;;;;;6.30;5.10;;;8.30;99.90;;;;;;5033527;28;20057;-77
2022/09/30 01:59:07;;;;;;;7.63;5.45;;;8.20;99.90;;;;;;5057833;28;20049;-77
2022/09/30 02:01:42;;;;;;;7.60;5.00;;;8.10;99.90;;;;;;5030908;28;20052;-77
2022/09/30 02:04:25;;;;;;;8.18;7.10;;;8.10;99.90;;;;;;5031559;28;20047;-78
2022/09/30 02:06:57;;;;;;;7.93;6.65;;;8.20;99.90;;;;;;5034108;28;20033;-77
2022/09/30 02:09:48;;;;;;;6.60;5.30;;;8.20;99.90;;;;;;5018723;28;20033;-77
2022/09/30 02:12:17;;;;;;;6.43;4.53;;;8.50;99.90;;;;;;5034388;28;20051;-77
2022/09/30 02:14:49;;;;;;;6.30;4.93;;;8.10;99.90;;;;;;5034183;28;20055;-77
2022/09/30 02:17:48;;;;;;;6.50;5.07;;;8.10;99.90;;;;;;5031108;28;20041;-77
2022/09/30 02:20:33;;;;;;;8.02;6.50;;;8.10;99.90;;;;;;5038500;28;20050;-78
2022/09/30 02:23:28;;;;;;;9.27;8.02;;;8.10;99.90;;;;;;5034718;28;20096;-78
2022/09/30 02:26:11;;;;;;;7.10;5.65;;;8.10;99.90;;;;;;5033911;28;20164;-77
2022/09/30 02:28:43;;;;;;;8.38;5.88;;;8.00;99.90;;;;;;5033637;28;20079;-77
2022/09/30 02:31:11;;;;;;;7.78;6.97;;;8.00;99.90;;;;;;5030145;28;20052;-77
2022/09/30 02:34:03;;;;;;;10.93;9.85;;;8.00;99.90;;;;;;5035163;28;20041;-77
2022/09/30 02:36:45;;;;;;;9.98;8.52;;;7.90;99.90;;;;;;5020732;28;20060;-77
2022/09/30 02:39:26;;;;;;;10.52;9.43;;;7.90;99.90;;;;;;5045672;28;20041;-78
2022/09/30 02:42:01;;;;;;;11.65;10.45;;;7.90;99.90;;;;;;5034048;28;20064;-77
2022/09/30 02:44:27;;;;;;;12.05;10.82;;;7.90;99.90;;;;;;5034083;28;20469;-77
2022/09/30 02:46:53;;;;;;;15.57;14.00;;;8.00;99.90;;;;;;5032484;28;20043;-77
2022/09/30 02:49:38;;;;;;;15.40;13.82;;;7.80;99.90;;;;;;5034713;28;20120;-77
2022/09/30 02:52:42;;;;;;;11.55;10.45;;;8.40;99.90;;;;;;5034193;28;20169;-77
2022/09/30 02:55:25;;;;;;;10.25;8.52;;;7.80;99.90;;;;;;5030510;28;20049;-78
2022/09/30 02:58:13;;;;;;;8.88;7.95;;;7.70;99.90;;;;;;5034688;28;20554;-78
2022/09/30 03:00:39;;;;;;;14.02;12.63;;;7.70;99.90;;;;;;5030470;28;20381;-78
2022/09/30 03:03:20;;;;;;;10.52;9.27;;;7.70;99.90;;;;;;5029014;28;20107;-77
2022/09/30 03:05:47;;;;;;;11.43;10.23;;;7.70;99.90;;;;;;5034770;28;20048;-77
2022/09/30 03:08:13;;;;;;;10.68;9.57;;;7.80;99.90;;;;;;5038127;28;20053;-77
2022/09/30 03:10:39;;;;;;;12.77;11.48;;;7.90;99.90;;;;;;5025774;28;20049;-77
2022/09/30 03:13:46;;;;;;;10.75;9.65;;;7.70;99.90;;;;;;5037888;28;20041;-77
2022/09/30 03:16:30;;;;;;;9.70;7.55;;;7.70;99.90;;;;;;5033999;28;20040;-78
2022/09/30 03:19:31;;;;;;;8.77;7.05;;;7.70;99.90;;;;;;5040510;28;20041;-78
2022/09/30 03:22:05;;;;;;;8.38;7.38;;;7.70;99.90;;;;;;5021240;28;20060;-78
2022/09/30 03:25:18;;;;;;;7.38;6.28;;;7.70;99.90;;;;;;5037414;28;20061;-78
2022/09/30 03:27:59;;;;;;;11.27;9.80;;;7.70;99.90;;;;;;4995910;28;20053;-78
2022/09/30 03:30:25;;;;;;;10.10;9.10;;;7.70;99.90;;;;;;5021237;28;20120;-78
2022/09/30 03:33:26;;;;;;;11.43;10.32;;;7.60;99.90;;;;;;5037033;28;20059;-78
2022/09/30 03:36:06;;;;;;;10.27;9.23;;;7.50;99.90;;;;;;5034737;28;20568;-79
2022/09/30 03:38:50;;;;;;;89.72;27.08;;;7.50;99.90;;;;;;5021220;28;20090;-78
2022/09/30 03:41:21;;;;;;;10.93;9.82;;;7.40;99.90;;;;;;5020632;28;20037;-78
2022/09/30 03:44:06;;;;;;;39.17;13.63;;;7.60;99.90;;;;;;5037848;28;20048;-78
2022/09/30 03:46:40;;;;;;;108.32;20.65;;;7.30;99.90;;;;;;5035201;28;20045;-77
2022/09/30 03:49:12;;;;;;;10.27;9.25;;;7.30;99.90;;;;;;5037600;28;20545;-77
2022/09/30 03:51:39;;;;;;;9.77;8.60;;;7.30;99.90;;;;;;5033983;28;20725;-77
2022/09/30 03:54:10;;;;;;;19.52;7.90;;;7.20;99.90;;;;;;5020505;28;20294;-77
2022/09/30 03:56:41;;;;;;;7.85;7.05;;;7.30;99.90;;;;;;5036142;28;20034;-77
2022/09/30 03:59:26;;;;;;;7.88;6.97;;;7.20;99.90;;;;;;5037198;28;20040;-76
2022/09/30 04:01:52;;;;;;;8.50;7.60;;;7.20;99.90;;;;;;5035613;28;20044;-77
2022/09/30 04:04:18;;;;;;;7.47;6.68;;;7.10;99.90;;;;;;5036951;28;20033;-76
2022/09/30 04:06:44;;;;;;;22.63;7.25;;;7.20;99.90;;;;;;5009279;28;20044;-77
2022/09/30 04:09:10;;;;;;;7.50;6.30;;;7.10;99.90;;;;;;5008476;28;20084;-77
2022/09/30 04:11:36;;;;;;;7.05;5.93;;;7.10;99.90;;;;;;5036580;28;20124;-77
2022/09/30 04:14:02;;;;;;;6.90;6.10;;;7.10;99.90;;;;;;5036344;28;20135;-77
2022/09/30 04:16:28;;;;;;;6.75;5.70;;;7.10;99.90;;;;;;5035671;28;20127;-77
2022/09/30 04:18:55;;;;;;;12.05;9.07;;;7.10;99.90;;;;;;5036968;28;20040;-77
2022/09/30 04:21:22;;;;;;;6.78;5.82;;;7.20;99.90;;;;;;5036880;28;20045;-77
2022/09/30 04:23:48;;;;;;;6.65;5.40;;;8.00;99.90;;;;;;5036721;28;20067;-77
2022/09/30 04:26:16;;;;;;;6.95;5.75;;;7.20;99.90;;;;;;5019250;28;20091;-78
2022/09/30 04:28:42;;;;;;;6.07;5.22;;;7.20;99.90;;;;;;5030192;28;20052;-77
2022/09/30 04:31:10;;;;;;;9.45;8.50;;;7.20;99.90;;;;;;5018964;28;20072;-78
2022/09/30 04:33:36;;;;;;;11.57;8.02;;;7.20;99.90;;;;;;5005615;28;20484;-77
2022/09/30 04:36:02;;;;;;;8.27;7.30;;;7.10;99.90;;;;;;5018908;28;20053;-78
2022/09/30 04:38:28;;;;;;;7.05;6.00;;;7.10;99.90;;;;;;5032232;28;20044;-77
2022/09/30 04:40:55;;;;;;;7.03;5.93;;;7.00;99.90;;;;;;5036544;28;20044;-78
2022/09/30 04:43:22;;;;;;;6.63;5.63;;;7.00;99.90;;;;;;5036388;28;20040;-77
2022/09/30 04:45:48;;;;;;;6.75;5.40;;;7.00;99.90;;;;;;5031533;28;20041;-77
2022/09/30 04:48:15;;;;;;;6.57;5.35;;;7.80;99.90;;;;;;5019892;28;20533;-77
2022/09/30 04:50:41;;;;;;;8.35;6.45;;;7.00;99.90;;;;;;5020434;28;20528;-77
2022/09/30 04:53:07;;;;;;;6.05;4.97;;;7.00;99.90;;;;;;5032931;28;20043;-77
2022/09/30 04:55:34;;;;;;;6.65;5.10;;;7.00;99.90;;;;;;5014267;28;20074;-77
2022/09/30 04:58:00;;;;;;;6.13;5.10;;;7.00;99.90;;;;;;5025268;28;20045;-78
2022/09/30 05:00:25;;;;;;;6.30;5.10;;;7.10;99.90;;;;;;5024593;28;20037;-76
2022/09/30 05:02:51;;;;;;;5.75;4.68;;;7.00;99.90;;;;;;5032595;28;20492;-76
2022/09/30 05:05:17;;;;;;;6.00;4.97;;;7.00;99.90;;;;;;5030693;28;20044;-77
2022/09/30 05:07:43;;;;;;;14.68;5.60;;;7.10;99.90;;;;;;5035581;28;20040;-78
2022/09/30 05:10:10;;;;;;;5.88;4.38;;;7.00;99.90;;;;;;5035733;28;20037;-77
2022/09/30 05:12:39;;;;;;;5.97;5.10;;;7.20;99.90;;;;;;5020001;28;20041;-77
2022/09/30 05:15:06;;;;;;;9.20;5.68;;;6.90;99.90;;;;;;5018860;28;20052;-77
2022/09/30 05:17:32;;;;;;;5.68;4.78;;;6.90;99.90;;;;;;5033559;28;20049;-77
2022/09/30 05:19:58;;;;;;;5.90;4.10;;;6.90;99.90;;;;;;5019434;28;20086;-77
2022/09/30 05:22:24;;;;;;;5.72;4.25;;;7.20;99.90;;;;;;5035531;28;20392;-77
2022/09/30 05:24:51;;;;;;;6.00;4.45;;;6.90;99.90;;;;;;5041704;28;20045;-77
2022/09/30 05:27:18;;;;;;;5.93;4.00;;;6.90;99.90;;;;;;5022950;28;20389;-77
2022/09/30 05:29:43;;;;;;;6.75;5.93;;;6.90;99.90;;;;;;5031031;28;20372;-78
2022/09/30 05:32:10;;;;;;;5.57;4.20;;;7.00;99.90;;;;;;5031266;28;20037;-77
2022/09/30 05:34:37;;;;;;;5.82;4.20;;;7.00;99.90;;;;;;5024780;28;20436;-77
2022/09/30 05:37:03;;;;;;;6.40;4.50;;;7.10;99.90;;;;;;5024062;28;20080;-77
2022/09/30 05:39:29;;;;;;;9.88;6.65;;;6.90;99.90;;;;;;5025718;28;20037;-77
2022/09/30 05:41:58;;;;;;;5.50;3.95;;;6.90;99.90;;;;;;5031562;28;20088;-77
2022/09/30 05:44:24;;;;;;;5.60;4.40;;;7.00;99.90;;;;;;5007361;28;20049;-77
2022/09/30 05:46:49;;;;;;;7.80;6.05;;;6.90;99.90;;;;;;5018140;28;20044;-78
2022/09/30 05:49:15;;;;;;;10.68;9.63;;;7.00;99.90;;;;;;5034624;28;20052;-78
2022/09/30 05:51:41;;;;;;;10.02;8.75;;;6.90;99.90;;;;;;5034437;28;20051;-77
2022/09/30 05:54:08;;;;;;;7.22;5.63;;;7.20;99.90;;;;;;5052509;28;20465;-78
2022/09/30 05:56:33;;;;;;;9.88;7.57;;;6.90;99.90;;;;;;5033165;28;20505;-77
2022/09/30 05:59:00;;;;;;;7.60;6.15;;;6.90;99.90;;;;;;5013306;28;20056;-77
2022/09/30 06:01:25;;;;;;;7.95;7.10;;;6.90;99.90;;;;;;5061962;28;20037;-77
2022/09/30 06:03:51;;;;;;;8.50;7.43;;;6.90;99.90;;;;;;5034943;28;20051;-77
2022/09/30 06:06:18;;;;;;;11.30;8.45;;;6.90;99.90;;;;;;5033642;28;20041;-78
2022/09/30 06:08:44;;;;;;;7.38;6.13;;;6.90;99.90;;;;;;5025073;28;20111;-78
2022/09/30 06:11:13;;;;;;;7.63;6.03;;;6.90;99.90;;;;;;5052074;28;20032;-78
2022/09/30 06:13:40;;;;;;;9.77;8.77;;;7.30;99.90;;;;;;5034178;28;20041;-79
2022/09/30 06:16:07;;;;;;;14.75;12.75;;;6.90;99.90;;;;;;5024961;28;20488;-79
2022/09/30 06:18:34;;;;;;;17.15;15.00;;;7.00;99.90;;;;;;5028436;28;20053;-80
2022/09/30 06:21:02;;;;;;;9.75;8.75;;;6.90;99.90;;;;;;5014485;28;20099;-77
2022/09/30 06:23:29;;;;;;;11.35;10.05;;;7.00;99.90;;;;;;5024540;28;20049;-79
2022/09/30 06:25:55;;;;;;;25.35;22.75;;;7.40;99.90;;;;;;5028878;28;20522;-79
2022/09/30 06:28:22;;;;;;;24.23;21.85;;;7.10;99.90;;;;;;5020560;28;20128;-79
2022/09/30 06:30:48;;;;;;;29.98;26.88;;;7.50;99.90;;;;;;5022474;28;20045;-79
2022/09/30 06:33:14;;;;;;;34.65;31.25;;;8.10;99.90;;;;;;5041204;28;20479;-79
2022/09/30 06:35:41;;;;;;;23.17;20.77;;;8.70;99.90;;;;;;5029236;28;20040;-80
2022/09/30 06:38:10;;;;;;;17.13;15.30;;;8.80;99.90;;;;;;5041923;28;20139;-79
2022/09/30 06:40:37;;;;;;;16.25;14.55;;;8.80;99.90;;;;;;5024874;28;20129;-78
2022/09/30 06:43:03;;;;;;;17.45;15.63;;;8.60;99.90;;;;;;5041121;28;20091;-79
2022/09/30 06:45:31;;;;;;;14.98;13.38;;;8.50;99.90;;;;;;5029269;28;20508;-79
2022/09/30 06:47:58;;;;;;;14.50;12.93;;;8.50;99.90;;;;;;5028120;28;20389;-79
2022/09/30 06:50:24;;;;;;;16.08;13.48;;;8.40;99.90;;;;;;5023029;28;20049;-79
2022/09/30 06:52:50;;;;;;;14.45;12.15;;;8.30;99.90;;;;;;5030726;28;20107;-78
2022/09/30 06:55:17;;;;;;;15.68;13.63;;;8.30;99.90;;;;;;5042404;28;20073;-80
2022/09/30 06:57:46;;;;;;;16.42;14.73;;;8.30;99.90;;;;;;5007845;28;20048;-79
2022/09/30 07:00:15;;;;;;;14.02;12.02;;;8.20;99.90;;;;;;5026976;28;20048;-78
2022/09/30 07:02:42;;;;;;;14.00;12.55;;;8.20;99.90;;;;;;5023796;28;20052;-78
2022/09/30 07:05:08;;;;;;;14.98;12.60;;;8.20;99.90;;;;;;5040601;28;20037;-79
2022/09/30 07:07:35;;;;;;;14.40;12.93;;;8.20;99.90;;;;;;4958187;28;20428;-78
2022/09/30 07:10:01;;;;;;;14.88;11.98;;;8.10;99.90;;;;;;5016170;28;20048;-78
2022/09/30 07:12:27;;;;;;;13.05;11.65;;;8.20;99.90;;;;;;5029395;28;20070;-79
2022/09/30 07:14:55;;;;;;;12.43;11.02;;;8.10;99.90;;;;;;5029590;28;20055;-79
2022/09/30 07:17:20;;;;;;;14.60;12.05;;;8.30;99.90;;;;;;5035411;28;20041;-79
2022/09/30 07:19:46;;;;;;;14.45;12.32;;;8.20;99.90;;;;;;5030061;28;20037;-76
2022/09/30 07:22:28;;;;;;;16.23;14.52;;;8.30;99.90;;;;;;5028978;28;20045;-79
2022/09/30 07:24:56;;;;;;;15.82;13.60;;;8.30;99.90;;;;;;5011832;28;20469;-79
2022/09/30 07:27:22;;;;;;;17.85;15.95;;;8.30;99.90;;;;;;5013998;28;20083;-78
2022/09/30 07:29:48;;;;;;;19.08;16.90;;;8.40;99.90;;;;;;5012311;28;20044;-80
2022/09/30 07:32:14;;;;;;;18.98;15.98;;;8.40;99.90;;;;;;5042959;28;20048;-78
2022/09/30 07:34:42;;;;;;;16.50;14.80;;;8.50;99.90;;;;;;5028884;28;20045;-79
2022/09/30 07:37:11;;;;;;;17.70;15.75;;;8.50;99.90;;;;;;5023746;28;20049;-78
2022/09/30 07:39:37;;;;;;;16.38;14.25;;;8.60;99.90;;;;;;5029921;28;20549;-80
2022/09/30 07:42:04;;;;;;;16.58;14.63;;;8.60;99.90;;;;;;5011945;28;20041;-79
2022/09/30 07:44:30;;;;;;;17.15;15.30;;;8.70;99.90;;;;;;5030122;28;20075;-80
2022/09/30 07:46:57;;;;;;;16.58;14.65;;;8.70;99.90;;;;;;5029425;28;20041;-80
2022/09/30 07:49:25;;;;;;;18.48;16.48;;;8.80;99.90;;;;;;5034530;28;20041;-79
2022/09/30 07:51:55;;;;;;;23.80;20.10;;;8.80;99.90;;;;;;5017908;28;21448;-79
2022/09/30 07:54:23;;;;;;;18.83;16.85;;;8.90;99.90;;;;;;5031157;28;20040;-79
2022/09/30 07:56:50;;;;;;;20.50;18.30;;;9.00;99.90;;;;;;5032259;28;20048;-77
2022/09/30 07:59:16;;;;;;;22.90;18.63;;;9.10;99.90;;;;;;5015095;28;20052;-78
2022/09/30 08:01:43;;;;;;;20.73;18.55;;;9.10;99.90;;;;;;5032529;28;20056;-79
2022/09/30 08:04:10;;;;;;;22.85;20.45;;;9.20;99.90;;;;;;5025585;28;20195;-78
2022/09/30 08:06:39;;;;;;;24.08;19.23;;;9.30;99.90;;;;;;5049310;28;20420;-79
2022/09/30 08:09:04;;;;;;;24.23;21.48;;;9.40;99.90;;;;;;5033192;28;20112;-78
2022/09/30 08:11:34;;;;;;;22.70;19.63;;;9.40;99.90;;;;;;5043918;28;20540;-79
2022/09/30 08:14:00;;;;;;;23.80;19.10;;;9.60;99.90;;;;;;5031356;28;20506;-77
2022/09/30 08:16:26;;;;;;;23.95;19.65;;;9.60;99.90;;;;;;5029815;28;20059;-78
2022/09/30 08:18:56;;;;;;;22.92;19.15;;;9.70;99.90;;;;;;5028966;28;20053;-76
2022/09/30 08:21:22;;;;;;;22.48;18.80;;;9.70;99.90;;;;;;5042850;28;20049;-76
2022/09/30 08:23:48;;;;;;;22.83;19.13;;;9.80;99.90;;;;;;5031901;28;20041;-75
2022/09/30 08:26:15;;;;;;;21.10;18.35;;;9.90;99.90;;;;;;5031595;28;20058;-76
2022/09/30 08:28:41;;;;;;;22.05;18.17;;;9.90;99.90;;;;;;5031186;28;20112;-73
2022/09/30 08:31:10;;;;;;;26.70;20.73;;;10.00;99.90;;;;;;5030683;28;20055;-74
2022/09/30 08:33:37;;;;;;;24.40;20.80;;;10.20;99.90;;;;;;5031925;28;20053;-73
2022/09/30 08:36:13;;;;;;;24.88;20.98;;;10.30;99.90;;;;;;5016713;28;20068;-73
2022/09/30 08:38:39;;;;;;;21.50;18.33;;;10.40;99.90;;;;;;5050499;28;20599;-72
2022/09/30 08:41:25;;;;;;;22.70;18.55;;;10.60;99.90;;;;;;5012787;28;20098;-72
2022/09/30 08:44:03;;;;;;;23.38;19.75;;;10.70;99.90;;;;;;5035862;28;20040;-71
2022/09/30 08:47:04;;;;;;;20.25;17.52;;;11.00;99.90;;;;;;5031058;28;20064;-71
2022/09/30 08:49:36;;;;;;;20.33;17.52;;;11.20;99.90;;;;;;5030400;28;20099;-73
2022/09/30 08:52:08;;;;;;;21.17;17.63;;;11.40;99.90;;;;;;5015433;28;20068;-71
2022/09/30 08:54:34;;;;;;;18.13;15.77;;;11.60;99.90;;;;;;5032405;28;20354;-73
2022/09/30 08:57:04;;;;;;;18.65;15.60;;;11.80;99.90;;;;;;5032411;28;20468;-72
2022/09/30 08:59:32;;;;;;;18.00;14.85;;;12.00;99.90;;;;;;5033627;28;20083;-71
2022/09/30 09:02:42;;;;;;;17.02;14.50;;;12.20;99.90;;;;;;5048725;28;20067;-72
2022/09/30 09:05:17;;;;;;;14.32;12.65;;;12.50;99.90;;;;;;5022504;28;20053;-74
2022/09/30 09:08:30;;;;;;;14.40;12.40;;;12.70;99.90;;;;;;5031781;28;20041;-73
2022/09/30 09:11:09;;;;;;;14.02;11.88;;;12.90;99.90;;;;;;4981641;28;20041;-73
2022/09/30 09:13:35;;;;;;;13.55;11.90;;;13.20;99.90;;;;;;5045052;28;20045;-73
2022/09/30 09:16:43;;;;;;;11.82;10.57;;;13.40;99.90;;;;;;5049047;28;20382;-75
2022/09/30 09:19:10;;;;;;;12.50;10.77;;;13.60;99.90;;;;;;5023707;28;20130;-73
2022/09/30 09:21:59;;;;;;;10.88;8.80;;;13.80;99.90;;;;;;5048321;28;20124;-73
2022/09/30 09:24:39;;;;;;;9.40;8.30;;;14.10;99.90;;;;;;5015706;28;20040;-74
2022/09/30 09:27:29;;;;;;;11.18;8.15;;;14.30;99.90;;;;;;5031017;28;20033;-73
2022/09/30 09:30:06;;;;;;;9.07;7.10;;;14.50;99.90;;;;;;5031526;28;20058;-72
2022/09/30 09:32:34;;;;;;;8.95;7.25;;;14.70;99.90;;;;;;5030207;28;20126;-73
2022/09/30 09:35:14;;;;;;;8.50;7.10;;;14.90;99.90;;;;;;5029797;28;20056;-72
2022/09/30 09:38:24;;;;;;;8.48;6.85;;;15.00;99.90;;;;;;5046791;28;20068;-73
2022/09/30 09:40:59;;;;;;;9.90;8.00;;;15.10;99.90;;;;;;5048912;28;20376;-72
2022/09/30 09:43:59;;;;;;;8.85;7.05;;;15.20;99.90;;;;;;5028165;28;20084;-73
2022/09/30 09:46:32;;;;;;;9.25;7.30;;;15.40;99.90;;;;;;5012525;28;20071;-73
2022/09/30 09:49:14;;;;;;;9.00;6.95;;;15.60;99.90;;;;;;5042809;28;20049;-72
2022/09/30 09:51:46;;;;;;;7.97;6.28;;;15.70;99.90;;;;;;5029374;28;20132;-74
2022/09/30 09:54:14;;;;;;;8.80;6.30;;;15.70;99.90;;;;;;5045600;28;20045;-72
2022/09/30 09:56:40;;;;;;;9.68;7.40;;;15.90;99.90;;;;;;5030096;28;20060;-73
2022/09/30 09:59:15;;;;;;;8.80;7.50;;;16.00;99.90;;;;;;5010859;28;20041;-73
2022/09/30 10:01:46;;;;;;;7.90;6.28;;;16.10;99.90;;;;;;5025173;28;20047;-72
2022/09/30 10:04:26;;;;;;;10.43;7.13;;;16.20;99.90;;;;;;5028681;28;20495;-72
2022/09/30 10:06:53;;;;;;;9.70;7.10;;;16.30;99.90;;;;;;5029180;28;20082;-73
2022/09/30 10:09:31;;;;;;;9.27;7.43;;;16.40;99.90;;;;;;5047645;28;20052;-72
2022/09/30 10:12:06;;;;;;;10.80;7.10;;;16.40;99.90;;;;;;5028935;28;20079;-72
2022/09/30 10:14:32;;;;;;;8.45;7.00;;;16.50;99.90;;;;;;5047542;28;20060;-72
2022/09/30 10:17:00;;;;;;;8.77;6.10;;;16.50;99.90;;;;;;5045328;28;20049;-72
2022/09/30 10:19:29;;;;;;;8.15;5.95;;;16.50;99.90;;;;;;5047314;28;20091;-74
2022/09/30 10:22:07;;;;;;;8.48;6.68;;;16.50;99.90;;;;;;5039244;28;20526;-75
2022/09/30 10:24:34;;;;;;;9.50;6.90;;;16.50;99.90;;;;;;5047304;28;20060;-72
2022/09/30 10:27:00;;;;;;;8.70;6.38;;;16.60;99.90;;;;;;5027492;28;20049;-76
2022/09/30 10:29:33;;;;;;;7.97;6.55;;;16.70;99.90;;;;;;5046926;28;20121;-75
2022/09/30 10:32:01;;;;;;;8.55;6.35;;;16.70;99.90;;;;;;5025968;28;20040;-74
2022/09/30 10:34:32;;;;;;;8.45;6.85;;;16.70;99.90;;;;;;5047212;28;20041;-73
2022/09/30 10:37:06;;;;;;;9.18;7.40;;;16.80;99.90;;;;;;5047328;28;20084;-73
2022/09/30 10:39:35;;;;;;;8.90;6.78;;;16.90;99.90;;;;;;5028594;28;20432;-75
2022/09/30 10:42:08;;;;;;;10.10;7.43;;;17.00;99.90;;;;;;5028033;28;20092;-75
2022/09/30 10:44:48;;;;;;;10.52;8.65;;;17.00;99.90;;;;;;5044710;28;20048;-74
2022/09/30 10:47:17;;;;;;;11.00;9.18;;;17.10;99.90;;;;;;5044296;28;20380;-76
2022/09/30 10:49:50;;;;;;;10.82;8.90;;;17.10;99.90;;;;;;5013125;28;20076;-74
2022/09/30 10:52:21;;;;;;;12.55;9.88;;;17.20;99.90;;;;;;5047014;28;20076;-74
2022/09/30 10:54:50;;;;;;;13.27;10.35;;;17.30;99.90;;;;;;5029450;28;20060;-74
2022/09/30 10:57:21;;;;;;;11.85;10.27;;;17.40;99.90;;;;;;5027420;28;20079;-75
2022/09/30 10:59:47;;;;;;;12.32;9.93;;;17.50;99.90;;;;;;5046520;28;20119;-73
2022/09/30 11:02:41;;;;;;;13.48;8.13;;;17.30;99.90;;;;;;5027617;28;20416;-74
2022/09/30 11:05:37;;;;;;;11.93;9.13;;;17.30;99.90;;;;;;5044102;28;20068;-75
2022/09/30 11:08:16;;;;;;;10.90;8.80;;;17.40;99.90;;;;;;5024952;28;20055;-75
2022/09/30 11:10:50;;;;;;;10.48;7.82;;;17.50;99.90;;;;;;5033182;28;20041;-74
2022/09/30 11:13:29;;;;;;;9.75;7.78;;;17.60;99.90;;;;;;5046101;28;20037;-76
2022/09/30 11:16:07;;;;;;;9.55;7.47;;;17.60;99.90;;;;;;5027608;28;20053;-72
2022/09/30 11:18:36;;;;;;;8.90;7.15;;;17.60;99.90;;;;;;5027784;28;20140;-72
2022/09/30 11:21:09;;;;;;;10.32;7.25;;;17.60;99.90;;;;;;5027798;28;20661;-73
2022/09/30 11:23:39;;;;;;;8.98;6.80;;;17.50;99.90;;;;;;5038487;28;20560;-74
2022/09/30 11:26:29;;;;;;;9.80;6.57;;;17.40;99.90;;;;;;5028165;28;20500;-72
2022/09/30 11:29:07;;;;;;;9.93;6.43;;;17.40;99.90;;;;;;5020113;28;20056;-74
2022/09/30 11:31:48;;;;;;;11.65;7.60;;;17.50;99.90;;;;;;5012655;28;20053;-75
2022/09/30 11:34:32;;;;;;;8.85;7.13;;;17.50;99.90;;;;;;5023683;28;20830;-74
2022/09/30 11:37:15;;;;;;;9.73;7.65;;;17.60;99.90;;;;;;5025086;28;20514;-74
2022/09/30 11:40:31;;;;;;;11.18;8.48;;;17.60;99.90;;;;;;5045276;28;20045;-73
2022/09/30 11:43:05;;;;;;;12.73;9.20;;;17.60;99.90;;;;;;5001908;28;20041;-73
2022/09/30 11:45:54;;;;;;;11.40;8.55;;;17.50;99.90;;;;;;5044605;28;20475;-75
2022/09/30 11:48:45;;;;;;;12.20;10.20;;;17.50;99.90;;;;;;5042391;28;20675;-74
2022/09/30 11:51:30;;;;;;;13.15;10.02;;;17.50;99.90;;;;;;5045397;28;20037;-72
2022/09/30 11:54:08;;;;;;;14.43;10.90;;;17.50;99.90;;;;;;5050044;28;20499;-73
2022/09/30 11:57:06;;;;;;;14.88;12.57;;;17.40;99.90;;;;;;5041502;28;20048;-74
2022/09/30 11:59:41;;;;;;;12.40;10.13;;;17.20;99.90;;;;;;5050013;28;20493;-76
2022/09/30 12:02:37;;;;;;;11.65;9.25;;;17.20;99.90;;;;;;4997816;28;20135;-75
2022/09/30 12:05:10;;;;;;;13.32;11.13;;;17.40;99.90;;;;;;5003336;28;20544;-74
2022/09/30 12:07:51;;;;;;;14.43;12.93;;;17.30;99.90;;;;;;5029727;28;20045;-74
2022/09/30 12:10:36;;;;;;;16.13;11.82;;;17.10;99.90;;;;;;5045875;28;20082;-75
2022/09/30 12:13:14;;;;;;;15.85;13.25;;;17.10;99.90;;;;;;5032510;28;20057;-73
2022/09/30 12:15:43;;;;;;;14.60;12.85;;;17.00;99.90;;;;;;5046204;28;20065;-76
2022/09/30 12:18:16;;;;;;;16.23;13.77;;;17.00;99.90;;;;;;5027018;28;20056;-77
2022/09/30 12:20:45;;;;;;;16.88;14.07;;;17.00;99.90;;;;;;5030465;28;20396;-76
2022/09/30 12:23:38;;;;;;;17.65;12.65;;;17.00;99.90;;;;;;5031072;28;20508;-76
2022/09/30 12:26:05;;;;;;;14.93;11.60;;;17.10;99.90;;;;;;5031465;28;20037;-76
2022/09/30 12:31:48;;;;;;;15.02;12.65;;;17.50;99.90;;;;;;5047585;28;20598;-74
2022/09/30 12:34:50;;;;;;;14.40;12.48;;;17.60;99.90;;;;;;5043073;28;20045;-76
2022/09/30 12:37:58;;;;;;;13.73;11.45;;;17.50;99.90;;;;;;5041065;28;20052;-78
2022/09/30 12:40:43;;;;;;;17.02;12.63;;;17.50;99.90;;;;;;5024614;28;20523;-75
2022/09/30 12:43:21;;;;;;;16.20;12.38;;;17.40;99.90;;;;;;5030154;28;20052;-74
2022/09/30 12:45:53;;;;;;;12.15;10.65;;;17.40;99.90;;;;;;5028055;28;20084;-78
2022/09/30 12:48:21;;;;;;;11.68;9.70;;;17.30;99.90;;;;;;5025641;28;20068;-75
2022/09/30 12:50:51;;;;;;;13.98;10.45;;;17.20;99.50;;;;;;5010575;28;20049;-76
2022/09/30 12:53:20;;;;;;;13.95;11.30;;;17.00;99.90;;;;;;5029821;28;20380;-75
2022/09/30 12:55:46;;;;;;;12.32;11.02;;;16.90;99.90;;;;;;5028558;28;20041;-75
2022/09/30 12:58:24;;;;;;;13.43;12.02;;;16.90;99.90;;;;;;5046163;28;20052;-74
2022/09/30 13:01:12;;;;;;;14.00;11.68;;;16.80;99.90;;;;;;5028985;28;20040;-73
2022/09/30 13:03:58;;;;;;;13.18;10.65;;;16.70;99.90;;;;;;5046951;28;20095;-74
2022/09/30 13:06:25;;;;;;;12.90;11.20;;;16.70;99.90;;;;;;5047257;28;20562;-75
2022/09/30 13:09:21;;;;;;;13.15;11.70;;;16.70;99.90;;;;;;5013471;28;20069;-75
2022/09/30 13:11:58;;;;;;;13.70;11.50;;;16.60;99.90;;;;;;5030317;28;20049;-78
2022/09/30 13:14:32;;;;;;;13.05;10.77;;;16.60;99.90;;;;;;5011832;28;20060;-76
2022/09/30 13:17:07;;;;;;;12.80;10.75;;;16.50;99.90;;;;;;5023025;28;20481;-76
2022/09/30 13:19:48;;;;;;;12.20;10.90;;;16.60;99.90;;;;;;5028806;28;20057;-76
2022/09/30 13:22:17;;;;;;;12.25;10.18;;;16.50;99.90;;;;;;5014597;28;20049;-76
2022/09/30 13:25:04;;;;;;;13.60;11.38;;;16.50;99.90;;;;;;5027901;28;20037;-77
2022/09/30 13:27:44;;;;;;;13.38;11.75;;;16.50;99.90;;;;;;5029319;28;20052;-77
2022/09/30 13:30:14;;;;;;;14.18;12.68;;;16.40;99.90;;;;;;5029294;28;20043;-78
2022/09/30 13:32:46;;;;;;;14.95;12.00;;;16.40;99.90;;;;;;5028176;28;20056;-77
2022/09/30 13:35:36;;;;;;;14.48;12.63;;;16.30;99.90;;;;;;5026154;28;20045;-76
2022/09/30 13:38:13;;;;;;;13.38;11.98;;;16.30;99.90;;;;;;5046835;28;20060;-76